Time;durP1;ratioP1;P1;durP2;ratioP2;P2;SDS_P1;SDS_P2;PMS_P1;PMS_P2;Temp;Humidity;BMP_temperature;BMP_pressure;BME280_temperature;BME280_humidity;BME280_pressure;Samples;Min_cycle;Max_cycle;Signal;HPM_P1;HPM_P2
2022/11/25 00:01:25;;;;;;;6.82;4.25;;;;;;;;;;4886221;29;20066;-84
2022/11/25 00:03:53;;;;;;;6.40;4.03;;;;;;;;;;4886024;29;20044;-84
2022/11/25 00:06:25;;;;;;;6.57;3.80;;;;;;;;;;4903209;29;20047;-84
2022/11/25 00:08:57;;;;;;;7.90;4.22;;;;;;;;;;4903308;29;20439;-84
2022/11/25 00:11:23;;;;;;;6.57;3.78;;;;;;;;;;4886535;29;20082;-84
2022/11/25 00:13:49;;;;;;;7.18;3.63;;;;;;;;;;4886248;29;20577;-84
2022/11/25 00:16:17;;;;;;;7.05;4.40;;;;;;;;;;4886055;29;20044;-85
2022/11/25 00:18:44;;;;;;;7.63;4.10;;;;;;;;;;4885935;29;20036;-84
2022/11/25 00:21:16;;;;;;;6.82;3.95;;;;;;;;;;4870461;29;20045;-85
2022/11/25 00:23:42;;;;;;;6.68;4.38;;;;;;;;;;4902596;29;20406;-84
2022/11/25 00:26:10;;;;;;;7.75;3.60;;;;;;;;;;4885066;29;20043;-84
2022/11/25 00:28:35;;;;;;;6.88;3.85;;;;;;;;;;4885827;29;20041;-83
2022/11/25 00:31:22;;;;;;;6.05;3.70;;;;;;;;;;4902531;29;20151;-85
2022/11/25 00:33:48;;;;;;;6.47;4.13;;;;;;;;;;4902715;29;20070;-85
2022/11/25 00:36:20;;;;;;;8.80;4.43;;;;;;;;;;4885396;29;20040;-85
2022/11/25 00:38:46;;;;;;;5.97;3.58;;;;;;;;;;4885634;29;20073;-85
2022/11/25 00:46:40;;;;;;;7.55;3.65;;;;;;;;;;4885697;29;20041;-85
2022/11/25 00:49:06;;;;;;;7.57;4.00;;;;;;;;;;4902834;29;20051;-85
2022/11/25 00:51:32;;;;;;;7.28;3.95;;;;;;;;;;4885735;29;20123;-85
2022/11/25 00:53:57;;;;;;;7.63;4.15;;;;;;;;;;4901928;29;20104;-84
2022/11/25 00:56:23;;;;;;;6.57;3.78;;;;;;;;;;4902231;29;20068;-85
2022/11/25 00:58:48;;;;;;;5.75;3.60;;;;;;;;;;4885485;29;20033;-85
2022/11/25 01:01:14;;;;;;;6.15;3.75;;;;;;;;;;4885084;29;20033;-85
2022/11/25 01:03:39;;;;;;;6.93;4.00;;;;;;;;;;4888265;29;20100;-85
2022/11/25 01:06:08;;;;;;;6.78;3.65;;;;;;;;;;4904541;29;20049;-85
2022/11/25 01:08:35;;;;;;;5.40;3.20;;;;;;;;;;4886073;29;20041;-85
2022/11/25 01:11:03;;;;;;;6.82;3.75;;;;;;;;;;4901961;29;20051;-85
2022/11/25 01:13:29;;;;;;;6.60;3.45;;;;;;;;;;4884889;29;20131;-84
2022/11/25 01:15:54;;;;;;;5.72;3.50;;;;;;;;;;4901240;29;20071;-85
2022/11/25 01:18:20;;;;;;;5.78;3.47;;;;;;;;;;4884872;29;20477;-85
2022/11/25 01:20:46;;;;;;;7.20;4.18;;;;;;;;;;4901347;29;20034;-84
2022/11/25 01:23:11;;;;;;;6.07;3.95;;;;;;;;;;4869898;29;20168;-84
2022/11/25 01:25:38;;;;;;;6.65;3.70;;;;;;;;;;4901543;29;21457;-85
2022/11/25 01:28:03;;;;;;;7.07;3.88;;;;;;;;;;4884791;29;20056;-84
2022/11/25 01:30:29;;;;;;;6.78;3.83;;;;;;;;;;4884309;29;20525;-83
2022/11/25 01:32:58;;;;;;;6.80;3.88;;;;;;;;;;4901910;29;20036;-85
2022/11/25 01:35:25;;;;;;;7.00;3.70;;;;;;;;;;4883979;29;20028;-85
2022/11/25 01:37:50;;;;;;;6.13;3.72;;;;;;;;;;4901332;29;20405;-84
2022/11/25 01:40:16;;;;;;;6.85;3.60;;;;;;;;;;4884403;29;20044;-85
2022/11/25 01:42:44;;;;;;;6.07;3.65;;;;;;;;;;4885007;29;20036;-85
2022/11/25 01:45:21;;;;;;;5.35;3.22;;;;;;;;;;4883884;29;20417;-85
2022/11/25 01:47:54;;;;;;;7.07;3.75;;;;;;;;;;4884186;29;20036;-85
2022/11/25 01:50:23;;;;;;;5.38;3.28;;;;;;;;;;4901164;29;20040;-85
2022/11/25 01:52:50;;;;;;;5.88;3.25;;;;;;;;;;4900740;29;20039;-85
2022/11/25 01:55:28;;;;;;;5.22;3.10;;;;;;;;;;4883616;29;20044;-84
2022/11/25 01:58:05;;;;;;;6.25;3.63;;;;;;;;;;4868109;29;20466;-84
2022/11/25 02:00:31;;;;;;;5.90;3.35;;;;;;;;;;4883960;29;20139;-85
2022/11/25 02:02:57;;;;;;;6.20;3.47;;;;;;;;;;4883929;29;20161;-83
2022/11/25 02:05:35;;;;;;;6.65;3.53;;;;;;;;;;4883873;29;20037;-85
2022/11/25 02:08:01;;;;;;;6.90;3.88;;;;;;;;;;4883769;29;20048;-85
2022/11/25 02:10:29;;;;;;;6.85;3.67;;;;;;;;;;4901117;29;20047;-85
2022/11/25 02:12:56;;;;;;;5.00;3.22;;;;;;;;;;4883650;29;20041;-84
2022/11/25 02:15:21;;;;;;;6.32;3.33;;;;;;;;;;4883333;29;20394;-85
2022/11/25 02:17:48;;;;;;;5.35;3.38;;;;;;;;;;4883733;29;20037;-85
2022/11/25 02:20:16;;;;;;;4.40;3.10;;;;;;;;;;4883850;29;20024;-84
2022/11/25 02:23:08;;;;;;;4.35;3.00;;;;;;;;;;4883161;29;20064;-84
2022/11/25 02:25:35;;;;;;;4.43;2.70;;;;;;;;;;4883693;29;20084;-84
2022/11/25 02:28:25;;;;;;;5.10;2.50;;;;;;;;;;4868874;29;20060;-85
2022/11/25 02:30:51;;;;;;;3.63;2.10;;;;;;;;;;4883893;29;20036;-85
2022/11/25 02:33:17;;;;;;;3.67;2.38;;;;;;;;;;4868616;29;20032;-85
2022/11/25 02:35:46;;;;;;;3.60;2.35;;;;;;;;;;4883307;29;20127;-84
2022/11/25 02:38:17;;;;;;;5.20;2.50;;;;;;;;;;4868241;29;20043;-85
2022/11/25 02:41:04;;;;;;;2.90;2.05;;;;;;;;;;4900794;29;20119;-84
2022/11/25 02:43:30;;;;;;;4.15;2.53;;;;;;;;;;4900652;29;20059;-84
2022/11/25 02:46:06;;;;;;;4.13;2.63;;;;;;;;;;4900321;29;20079;-84
2022/11/25 02:48:33;;;;;;;3.10;2.10;;;;;;;;;;4884033;29;20063;-85
2022/11/25 02:50:59;;;;;;;3.88;2.35;;;;;;;;;;4868357;29;20075;-85
2022/11/25 02:53:25;;;;;;;5.05;2.78;;;;;;;;;;4882941;29;20060;-84
2022/11/25 02:55:51;;;;;;;4.60;2.42;;;;;;;;;;4899952;29;20076;-85
2022/11/25 02:58:17;;;;;;;3.53;2.38;;;;;;;;;;4900930;29;20043;-85
2022/11/25 03:00:43;;;;;;;3.95;2.30;;;;;;;;;;4883580;29;20036;-84
2022/11/25 03:03:09;;;;;;;3.92;2.40;;;;;;;;;;4883108;29;20406;-84
2022/11/25 03:05:35;;;;;;;5.47;2.25;;;;;;;;;;4883212;29;20119;-84
2022/11/25 03:08:01;;;;;;;3.40;2.33;;;;;;;;;;4883291;29;20561;-84
2022/11/25 03:10:27;;;;;;;2.85;2.28;;;;;;;;;;4882897;29;20037;-85
2022/11/25 03:12:53;;;;;;;4.38;2.40;;;;;;;;;;4900419;29;20059;-85
2022/11/25 03:15:22;;;;;;;3.40;2.33;;;;;;;;;;4868033;29;20036;-86
2022/11/25 03:17:48;;;;;;;4.55;2.67;;;;;;;;;;4884250;29;20489;-85
2022/11/25 03:20:14;;;;;;;6.32;2.53;;;;;;;;;;4883370;29;20524;-84
2022/11/25 03:22:43;;;;;;;3.92;2.35;;;;;;;;;;4882867;29;20100;-84
2022/11/25 03:25:10;;;;;;;3.50;2.40;;;;;;;;;;4883476;29;20398;-84
2022/11/25 03:27:37;;;;;;;4.03;2.72;;;;;;;;;;4887410;29;20096;-85
2022/11/25 03:30:05;;;;;;;4.07;2.38;;;;;;;;;;4871217;29;20088;-85
2022/11/25 03:32:30;;;;;;;4.05;2.20;;;;;;;;;;4885967;29;20571;-85
2022/11/25 03:34:56;;;;;;;4.22;2.42;;;;;;;;;;4886128;29;20631;-85
2022/11/25 03:37:22;;;;;;;4.10;2.22;;;;;;;;;;4886292;29;20052;-84
2022/11/25 03:39:47;;;;;;;4.30;2.50;;;;;;;;;;4870374;29;20131;-84
2022/11/25 03:42:13;;;;;;;5.30;2.25;;;;;;;;;;4886227;29;20043;-84
2022/11/25 03:44:39;;;;;;;4.03;2.05;;;;;;;;;;4903086;29;20047;-85
2022/11/25 03:47:04;;;;;;;3.42;2.15;;;;;;;;;;4886095;29;20033;-85
2022/11/25 03:49:31;;;;;;;3.75;1.98;;;;;;;;;;4886376;29;20072;-85
2022/11/25 03:51:57;;;;;;;3.45;2.00;;;;;;;;;;4870647;29;20060;-85
2022/11/25 03:54:22;;;;;;;3.30;2.20;;;;;;;;;;4885794;29;20032;-85
2022/11/25 03:57:07;;;;;;;4.50;2.20;;;;;;;;;;4903662;29;20055;-85
2022/11/25 03:59:33;;;;;;;4.43;2.50;;;;;;;;;;4885964;29;20068;-84
2022/11/25 04:02:00;;;;;;;3.15;2.13;;;;;;;;;;4885744;29;20480;-85
2022/11/25 04:04:25;;;;;;;4.72;2.28;;;;;;;;;;4885773;29;20494;-84
2022/11/25 04:06:51;;;;;;;5.25;2.30;;;;;;;;;;4885787;29;20064;-84
2022/11/25 04:09:17;;;;;;;3.72;2.10;;;;;;;;;;4885743;29;20032;-85
2022/11/25 04:14:35;;;;;;;3.97;2.42;;;;;;;;;;4885745;29;20037;-85
2022/11/25 04:17:01;;;;;;;3.80;2.38;;;;;;;;;;4885386;29;20096;-84
2022/11/25 04:19:27;;;;;;;3.13;2.13;;;;;;;;;;4885399;29;20028;-85
2022/11/25 04:21:53;;;;;;;3.60;2.28;;;;;;;;;;4885343;29;20518;-84
2022/11/25 04:24:20;;;;;;;3.42;2.58;;;;;;;;;;4899622;29;20036;-84
2022/11/25 04:26:46;;;;;;;4.45;2.40;;;;;;;;;;4889232;29;20035;-85
2022/11/25 04:29:14;;;;;;;3.55;2.40;;;;;;;;;;4904640;29;20464;-84
2022/11/25 04:31:41;;;;;;;3.15;2.28;;;;;;;;;;4903927;29;20032;-84
2022/11/25 04:34:07;;;;;;;4.25;2.25;;;;;;;;;;4888192;29;20099;-84
2022/11/25 04:36:32;;;;;;;4.18;2.30;;;;;;;;;;4903134;29;20097;-83
2022/11/25 04:38:59;;;;;;;3.53;1.95;;;;;;;;;;4888587;29;20043;-86
2022/11/25 04:41:25;;;;;;;2.85;2.15;;;;;;;;;;4904117;29;20079;-85
2022/11/25 04:43:50;;;;;;;2.88;1.95;;;;;;;;;;4904503;29;20413;-84
2022/11/25 04:46:20;;;;;;;3.50;2.20;;;;;;;;;;4903994;29;20039;-85
2022/11/25 04:48:49;;;;;;;5.18;2.05;;;;;;;;;;4904286;29;20036;-84
2022/11/25 04:51:15;;;;;;;3.78;2.38;;;;;;;;;;4904565;29;20088;-84
2022/11/25 04:53:42;;;;;;;3.45;2.60;;;;;;;;;;4904114;29;20043;-84
2022/11/25 04:56:16;;;;;;;3.60;2.10;;;;;;;;;;4903756;29;20512;-84
2022/11/25 05:01:27;;;;;;;4.13;2.53;;;;;;;;;;4903619;29;20108;-83
2022/11/25 05:04:01;;;;;;;;;;;;;;;;;;4903674;29;20528;-83
2022/11/25 05:06:27;;;;;;;3.33;2.30;;;;;;;;;;4904089;29;19915;-84
2022/11/25 05:08:53;;;;;;;5.50;3.00;;;;;;;;;;4903323;29;20028;-84
2022/11/25 05:11:20;;;;;;;5.03;2.10;;;;;;;;;;4904034;29;20075;-84
2022/11/25 05:13:45;;;;;;;3.70;2.22;;;;;;;;;;4903837;29;20036;-84
2022/11/25 05:16:11;;;;;;;4.45;2.50;;;;;;;;;;4920817;29;20043;-83
2022/11/25 05:18:36;;;;;;;5.75;3.50;;;;;;;;;;4903241;29;20032;-83
2022/11/25 05:21:03;;;;;;;6.43;2.50;;;;;;;;;;4903475;29;20545;-84
2022/11/25 05:23:33;;;;;;;4.78;3.47;;;;;;;;;;4903065;29;20031;-82
2022/11/25 05:26:03;;;;;;;4.57;3.05;;;;;;;;;;4902880;29;20040;-83
2022/11/25 05:28:34;;;;;;;5.97;3.92;;;;;;;;;;4888770;29;20040;-82
2022/11/25 05:31:00;;;;;;;5.15;2.60;;;;;;;;;;4903449;29;20466;-83
2022/11/25 05:33:26;;;;;;;3.35;2.20;;;;;;;;;;4903194;29;20047;-82
2022/11/25 05:35:58;;;;;;;3.88;2.35;;;;;;;;;;4902858;29;20044;-84
2022/11/25 05:38:28;;;;;;;5.32;2.20;;;;;;;;;;4903194;29;20131;-84
2022/11/25 05:41:00;;;;;;;3.97;2.40;;;;;;;;;;4902935;29;20074;-83
2022/11/25 05:43:26;;;;;;;3.40;2.50;;;;;;;;;;4903702;29;20094;-83
2022/11/25 05:48:32;;;;;;;4.97;2.40;;;;;;;;;;4864041;29;20041;-88
2022/11/25 05:50:59;;;;;;;3.38;2.30;;;;;;;;;;4860136;29;20038;-89
2022/11/25 05:53:27;;;;;;;3.15;2.17;;;;;;;;;;4860098;29;20044;-88
2022/11/25 05:55:58;;;;;;;3.40;2.28;;;;;;;;;;4860221;29;20086;-88
2022/11/25 05:58:43;;;;;;;3.45;2.13;;;;;;;;;;4880170;29;20052;-87
2022/11/25 06:01:10;;;;;;;3.65;2.30;;;;;;;;;;4864112;29;20036;-88
2022/11/25 06:03:36;;;;;;;3.42;2.20;;;;;;;;;;4863329;29;20399;-88
2022/11/25 06:06:03;;;;;;;2.95;2.10;;;;;;;;;;4879364;29;20037;-88
2022/11/25 06:08:30;;;;;;;3.28;2.38;;;;;;;;;;4865962;29;20124;-88
2022/11/25 06:10:56;;;;;;;4.38;2.70;;;;;;;;;;4881341;29;20033;-88
2022/11/25 06:13:22;;;;;;;4.65;2.70;;;;;;;;;;4850758;29;20044;-88
2022/11/25 06:15:47;;;;;;;4.18;2.65;;;;;;;;;;4864700;29;20041;-87
2022/11/25 06:18:16;;;;;;;5.03;3.20;;;;;;;;;;4864867;29;20712;-87
2022/11/25 06:20:44;;;;;;;4.68;3.20;;;;;;;;;;4864597;29;20036;-88
2022/11/25 06:23:10;;;;;;;4.15;2.83;;;;;;;;;;4864691;29;20173;-88
2022/11/25 06:25:36;;;;;;;4.53;2.80;;;;;;;;;;4880029;29;20409;-88
2022/11/25 06:28:03;;;;;;;4.78;3.13;;;;;;;;;;4849293;29;20120;-87
2022/11/25 06:30:29;;;;;;;5.90;3.30;;;;;;;;;;4881115;29;20037;-87
2022/11/25 06:33:27;;;;;;;4.35;2.53;;;;;;;;;;4870192;29;20479;-86
2022/11/25 06:35:53;;;;;;;5.45;3.03;;;;;;;;;;4873963;29;20064;-88
2022/11/25 06:38:18;;;;;;;4.55;2.92;;;;;;;;;;4864819;29;20052;-87
2022/11/25 06:40:44;;;;;;;4.75;2.85;;;;;;;;;;4864979;29;20036;-87
2022/11/25 06:43:09;;;;;;;4.93;3.00;;;;;;;;;;4885364;29;20058;-89
2022/11/25 06:45:35;;;;;;;4.15;2.75;;;;;;;;;;4886702;29;20051;-85
2022/11/25 06:48:00;;;;;;;3.83;2.53;;;;;;;;;;4881118;29;20510;-85
2022/11/25 06:50:26;;;;;;;4.55;2.75;;;;;;;;;;4880390;29;20506;-86
2022/11/25 06:52:51;;;;;;;3.90;2.33;;;;;;;;;;4897994;29;20067;-88
2022/11/25 06:55:17;;;;;;;3.40;2.50;;;;;;;;;;4899804;29;20043;-87
2022/11/25 06:57:42;;;;;;;6.32;2.85;;;;;;;;;;4899289;29;20437;-88
2022/11/25 07:00:08;;;;;;;4.57;2.65;;;;;;;;;;4865501;29;20534;-87
2022/11/25 07:02:33;;;;;;;5.80;2.60;;;;;;;;;;4869101;29;20044;-86
2022/11/25 07:04:59;;;;;;;4.65;2.70;;;;;;;;;;4892327;29;20029;-87
2022/11/25 07:07:24;;;;;;;5.60;2.78;;;;;;;;;;4871391;29;20521;-89
2022/11/25 07:09:50;;;;;;;4.10;2.80;;;;;;;;;;4869768;29;20033;-88
2022/11/25 07:12:15;;;;;;;4.70;2.55;;;;;;;;;;4885857;29;20111;-88
2022/11/25 07:14:43;;;;;;;4.95;3.20;;;;;;;;;;4868837;29;20044;-88
2022/11/25 07:17:09;;;;;;;5.22;3.25;;;;;;;;;;4870220;29;20060;-88
2022/11/25 07:19:35;;;;;;;4.20;2.72;;;;;;;;;;4887741;29;20127;-88
2022/11/25 07:22:01;;;;;;;5.57;2.97;;;;;;;;;;4867691;29;20443;-84
2022/11/25 07:24:26;;;;;;;4.45;3.00;;;;;;;;;;4885898;29;20053;-86
2022/11/25 07:26:52;;;;;;;5.20;3.30;;;;;;;;;;4883205;29;20036;-87
2022/11/25 07:29:18;;;;;;;5.22;3.17;;;;;;;;;;4884092;29;20509;-87
2022/11/25 07:31:44;;;;;;;4.85;3.15;;;;;;;;;;4867076;29;20033;-87
2022/11/25 07:34:16;;;;;;;6.40;3.42;;;;;;;;;;4865520;29;20159;-87
2022/11/25 07:36:43;;;;;;;5.45;3.35;;;;;;;;;;4891668;29;20049;-87
2022/11/25 07:39:15;;;;;;;7.95;3.80;;;;;;;;;;4868583;29;20112;-88
2022/11/25 07:41:41;;;;;;;6.15;3.13;;;;;;;;;;4882949;29;20495;-87
2022/11/25 07:44:07;;;;;;;7.45;3.30;;;;;;;;;;4883410;29;20056;-87
2022/11/25 07:47:03;;;;;;;5.97;3.20;;;;;;;;;;4848901;29;20588;-87
2022/11/25 07:49:29;;;;;;;5.07;2.72;;;;;;;;;;4869181;29;20040;-87
2022/11/25 07:51:58;;;;;;;7.30;3.10;;;;;;;;;;4887025;29;20391;-87
2022/11/25 07:54:24;;;;;;;6.10;3.10;;;;;;;;;;4886733;29;20069;-86
2022/11/25 07:56:50;;;;;;;4.93;2.70;;;;;;;;;;4884393;29;20032;-86
2022/11/25 07:59:17;;;;;;;4.38;2.90;;;;;;;;;;4884460;29;20048;-87
2022/11/25 08:01:43;;;;;;;4.15;2.45;;;;;;;;;;4886283;29;20033;-86
2022/11/25 08:04:10;;;;;;;4.50;2.90;;;;;;;;;;4883674;29;20035;-71
2022/11/25 08:06:41;;;;;;;5.43;2.78;;;;;;;;;;4881326;29;20132;-87
2022/11/25 08:09:08;;;;;;;5.18;2.72;;;;;;;;;;4884418;29;20037;-86
2022/11/25 08:11:34;;;;;;;3.97;2.40;;;;;;;;;;4881776;29;20112;-88
2022/11/25 08:14:00;;;;;;;4.25;2.63;;;;;;;;;;4865114;29;20045;-86
2022/11/25 08:16:30;;;;;;;3.13;1.70;;;;;;;;;;4866449;29;20100;-86
2022/11/25 08:18:57;;;;;;;3.20;1.80;;;;;;;;;;4884608;29;20092;-86
2022/11/25 08:21:23;;;;;;;4.15;2.00;;;;;;;;;;4889383;29;20040;-86
2022/11/25 08:23:51;;;;;;;3.95;1.95;;;;;;;;;;4870686;29;20040;-86
2022/11/25 08:26:33;;;;;;;3.20;2.00;;;;;;;;;;4898838;29;20041;-86
2022/11/25 08:29:00;;;;;;;4.82;2.40;;;;;;;;;;4886318;29;20045;-86
2022/11/25 08:31:34;;;;;;;3.08;1.88;;;;;;;;;;4868280;29;20037;-86
2022/11/25 08:34:01;;;;;;;3.53;2.03;;;;;;;;;;4885116;29;20040;-86
2022/11/25 08:36:27;;;;;;;4.85;2.35;;;;;;;;;;4885830;29;20399;-85
2022/11/25 08:38:56;;;;;;;3.45;1.90;;;;;;;;;;4890320;29;20041;-85
2022/11/25 08:41:24;;;;;;;4.18;2.20;;;;;;;;;;4885624;29;20039;-86
2022/11/25 08:43:50;;;;;;;4.32;2.03;;;;;;;;;;4887988;29;20557;-84
2022/11/25 08:46:22;;;;;;;5.28;2.17;;;;;;;;;;4887682;29;20065;-85
2022/11/25 08:48:48;;;;;;;3.92;2.20;;;;;;;;;;4888183;29;20033;-86
2022/11/25 08:51:20;;;;;;;2.95;1.98;;;;;;;;;;4870221;29;20410;-86
2022/11/25 08:53:46;;;;;;;3.45;2.00;;;;;;;;;;4868691;29;20040;-87
2022/11/25 08:56:12;;;;;;;2.72;1.70;;;;;;;;;;4884835;29;20037;-87
2022/11/25 08:58:38;;;;;;;3.53;2.03;;;;;;;;;;4885513;29;20037;-86
2022/11/25 09:01:05;;;;;;;4.10;2.05;;;;;;;;;;4869555;29;20409;-85
2022/11/25 09:03:36;;;;;;;3.40;2.20;;;;;;;;;;4885857;29;20041;-85
2022/11/25 09:06:02;;;;;;;4.20;2.20;;;;;;;;;;4884155;29;20037;-84
2022/11/25 09:08:29;;;;;;;3.33;2.40;;;;;;;;;;4881220;29;20475;-86
2022/11/25 09:10:54;;;;;;;3.10;2.10;;;;;;;;;;4865526;29;20044;-85
2022/11/25 09:13:20;;;;;;;2.72;2.00;;;;;;;;;;4882590;29;20021;-85
2022/11/25 09:15:45;;;;;;;3.45;1.90;;;;;;;;;;4882727;29;20037;-87
2022/11/25 09:18:11;;;;;;;3.10;1.80;;;;;;;;;;4867278;29;20037;-85
2022/11/25 09:20:38;;;;;;;3.33;1.83;;;;;;;;;;4885321;29;20119;-86
2022/11/25 09:23:05;;;;;;;4.43;1.90;;;;;;;;;;4884052;29;20041;-85
2022/11/25 09:25:31;;;;;;;3.15;1.63;;;;;;;;;;4884427;29;20193;-85
2022/11/25 09:27:59;;;;;;;3.20;1.83;;;;;;;;;;4884224;29;20061;-85
2022/11/25 09:30:25;;;;;;;3.10;1.90;;;;;;;;;;4882204;29;20041;-85
2022/11/25 09:32:53;;;;;;;3.78;1.80;;;;;;;;;;4884304;29;20056;-86
2022/11/25 09:35:19;;;;;;;2.47;1.67;;;;;;;;;;4885553;29;20074;-85
2022/11/25 09:37:45;;;;;;;2.55;1.65;;;;;;;;;;4882039;29;20055;-86
2022/11/25 09:40:51;;;;;;;2.53;1.52;;;;;;;;;;4869610;29;20104;-87
2022/11/25 09:46:44;;;;;;;2.75;1.80;;;;;;;;;;4879597;29;20122;-86
2022/11/25 09:49:45;;;;;;;3.58;1.90;;;;;;;;;;4880053;29;20045;-86
2022/11/25 09:52:13;;;;;;;7.53;1.88;;;;;;;;;;4879598;29;20081;-85
2022/11/25 09:54:48;;;;;;;5.32;2.03;;;;;;;;;;4879069;29;20056;-87
2022/11/25 09:57:30;;;;;;;11.68;2.28;;;;;;;;;;4880668;29;20097;-85
2022/11/25 10:00:11;;;;;;;5.57;2.05;;;;;;;;;;4881028;29;20049;-85
2022/11/25 10:02:55;;;;;;;4.85;2.30;;;;;;;;;;4880257;29;20407;-85
2022/11/25 10:05:25;;;;;;;2.90;1.85;;;;;;;;;;4863642;29;20037;-86
2022/11/25 10:07:56;;;;;;;2.47;1.60;;;;;;;;;;4879884;29;20039;-87
2022/11/25 10:10:27;;;;;;;3.00;1.90;;;;;;;;;;4882619;29;20047;-87
2022/11/25 10:12:55;;;;;;;3.97;1.60;;;;;;;;;;4882033;29;20063;-87
2022/11/25 10:15:26;;;;;;;3.60;2.38;;;;;;;;;;4864833;29;20087;-86
2022/11/25 10:18:00;;;;;;;3.40;1.65;;;;;;;;;;4864851;29;20033;-85
2022/11/25 10:20:37;;;;;;;2.35;1.65;;;;;;;;;;4864313;29;20045;-87
2022/11/25 10:23:20;;;;;;;7.47;1.80;;;;;;;;;;4864058;29;20402;-88
2022/11/25 10:25:50;;;;;;;3.92;1.65;;;;;;;;;;4880485;29;20044;-85
2022/11/25 10:28:30;;;;;;;4.43;1.80;;;;;;;;;;4884439;29;20080;-85
2022/11/25 10:31:14;;;;;;;3.70;1.70;;;;;;;;;;4864695;29;20041;-84
2022/11/25 10:33:43;;;;;;;;;;;;;;;;;;4864470;29;20048;-83
2022/11/25 10:36:20;;;;;;;2.33;1.50;;;;;;;;;;4883687;29;20369;-86
2022/11/25 10:38:55;;;;;;;4.28;1.75;;;;;;;;;;4884604;29;20041;-84
2022/11/25 10:41:25;;;;;;;2.53;1.50;;;;;;;;;;4883401;29;20037;-84
2022/11/25 10:43:50;;;;;;;4.47;1.40;;;;;;;;;;4893033;29;20533;-87
2022/11/25 10:46:19;;;;;;;4.38;1.80;;;;;;;;;;4884213;29;20123;-86
2022/11/25 10:49:00;;;;;;;3.22;1.50;;;;;;;;;;4867609;29;20033;-86
2022/11/25 10:51:48;;;;;;;2.70;1.38;;;;;;;;;;4884570;29;20044;-84
2022/11/25 10:54:14;;;;;;;6.93;1.63;;;;;;;;;;4883870;29;20040;-85
2022/11/25 10:56:48;;;;;;;2.88;1.60;;;;;;;;;;4868151;29;20399;-84
2022/11/25 10:59:30;;;;;;;1.83;1.30;;;;;;;;;;4883381;29;20090;-87
2022/11/25 11:02:20;;;;;;;2.88;1.45;;;;;;;;;;4882995;29;20041;-87
2022/11/25 11:04:58;;;;;;;3.90;1.65;;;;;;;;;;4882386;29;20490;-86
2022/11/25 11:07:28;;;;;;;3.13;1.60;;;;;;;;;;4865811;29;20033;-86
2022/11/25 11:10:26;;;;;;;2.72;1.27;;;;;;;;;;4881557;29;20068;-88
2022/11/25 11:12:57;;;;;;;3.38;1.92;;;;;;;;;;4882536;29;20057;-87
2022/11/25 11:15:39;;;;;;;8.90;1.90;;;;;;;;;;4882266;29;20037;-87
2022/11/25 11:18:43;;;;;;;3.10;1.50;;;;;;;;;;4866825;29;20105;-86
2022/11/25 11:21:22;;;;;;;5.00;1.42;;;;;;;;;;4826232;29;20042;-87
2022/11/25 11:23:53;;;;;;;1.98;1.20;;;;;;;;;;4825634;29;20098;-85
2022/11/25 11:26:25;;;;;;;2.83;1.40;;;;;;;;;;4858699;29;20053;-85
2022/11/25 11:29:02;;;;;;;3.60;1.30;;;;;;;;;;4883203;29;20101;-88
2022/11/25 11:31:34;;;;;;;3.35;1.20;;;;;;;;;;4866582;29;20033;-87
2022/11/25 11:34:10;;;;;;;1.97;1.20;;;;;;;;;;4882269;29;20125;-87
2022/11/25 11:36:44;;;;;;;6.25;1.58;;;;;;;;;;4866450;29;20041;-84
2022/11/25 11:39:19;;;;;;;2.75;1.70;;;;;;;;;;4882187;29;20049;-85
2022/11/25 11:42:20;;;;;;;5.45;2.30;;;;;;;;;;4882278;29;20041;-84
2022/11/25 11:44:48;;;;;;;4.43;1.98;;;;;;;;;;4887342;29;20061;-85
2022/11/25 11:47:29;;;;;;;7.20;2.40;;;;;;;;;;4910081;23;20037;-85
2022/11/25 11:50:13;;;;;;;10.27;3.63;;;;;;;;;;4906494;29;20048;-86
2022/11/25 11:52:51;;;;;;;5.88;2.70;;;;;;;;;;4906531;29;20042;-85
2022/11/25 11:55:33;;;;;;;6.28;3.17;;;;;;;;;;4906621;29;20068;-84
2022/11/25 11:58:15;;;;;;;4.70;2.92;;;;;;;;;;4905726;29;20098;-85
2022/11/25 12:01:04;;;;;;;5.50;2.55;;;;;;;;;;4889164;29;20032;-84
2022/11/25 12:03:42;;;;;;;7.32;2.10;;;;;;;;;;4888901;29;20041;-85
2022/11/25 12:06:10;;;;;;;5.50;1.30;;;;;;;;;;4889089;29;20040;-85
2022/11/25 12:08:58;;;;;;;5.28;2.00;;;;;;;;;;4906173;29;20032;-85
2022/11/25 12:11:31;;;;;;;5.30;1.50;;;;;;;;;;4905888;29;20036;-86
2022/11/25 12:14:38;;;;;;;6.32;1.80;;;;;;;;;;4905216;29;20089;-84
2022/11/25 12:17:13;;;;;;;5.13;2.03;;;;;;;;;;4903496;29;20048;-85
2022/11/25 12:19:57;;;;;;;3.92;1.80;;;;;;;;;;4905601;29;20629;-84
2022/11/25 12:22:31;;;;;;;2.33;1.50;;;;;;;;;;4905911;29;20037;-85
2022/11/25 12:25:21;;;;;;;3.83;2.00;;;;;;;;;;4905519;29;20044;-86
2022/11/25 12:28:04;;;;;;;3.45;1.80;;;;;;;;;;4888553;29;20405;-84
2022/11/25 12:30:39;;;;;;;3.35;1.90;;;;;;;;;;4905744;29;20383;-85
2022/11/25 12:33:26;;;;;;;6.03;1.50;;;;;;;;;;4905768;29;20033;-84
2022/11/25 12:36:07;;;;;;;2.75;1.50;;;;;;;;;;4905455;29;20051;-85
2022/11/25 12:38:37;;;;;;;2.65;1.63;;;;;;;;;;4888946;29;20490;-87
2022/11/25 12:41:21;;;;;;;3.65;1.58;;;;;;;;;;4906103;29;20036;-83
2022/11/25 12:44:22;;;;;;;;;;;;;;;;;;4906918;29;20088;-81
2022/11/25 12:46:49;;;;;;;3.13;1.60;;;;;;;;;;4886907;29;19915;-85
2022/11/25 12:49:21;;;;;;;5.93;1.80;;;;;;;;;;4902105;29;20049;-86
2022/11/25 12:52:15;;;;;;;5.22;1.70;;;;;;;;;;4888162;29;20092;-85
2022/11/25 12:54:46;;;;;;;4.15;1.75;;;;;;;;;;4904663;29;20447;-86
2022/11/25 12:57:27;;;;;;;4.57;1.85;;;;;;;;;;4901981;29;20040;-85
2022/11/25 13:00:17;;;;;;;2.35;1.58;;;;;;;;;;4886310;29;20196;-85
2022/11/25 13:02:55;;;;;;;4.82;1.83;;;;;;;;;;4903524;29;20064;-86
2022/11/25 13:05:23;;;;;;;3.50;2.05;;;;;;;;;;4886297;29;20048;-85
2022/11/25 13:08:04;;;;;;;4.30;1.50;;;;;;;;;;4903264;29;20032;-86
2022/11/25 13:10:47;;;;;;;2.70;1.52;;;;;;;;;;4904561;29;20041;-85
2022/11/25 13:13:42;;;;;;;3.60;1.65;;;;;;;;;;4906863;29;20490;-85
2022/11/25 13:16:08;;;;;;;2.75;1.50;;;;;;;;;;4904072;29;20724;-85
2022/11/25 13:18:39;;;;;;;2.55;1.30;;;;;;;;;;4903562;29;20028;-84
2022/11/25 13:21:10;;;;;;;4.05;1.45;;;;;;;;;;4903145;29;20078;-85
2022/11/25 13:23:44;;;;;;;2.80;1.30;;;;;;;;;;4904109;29;20135;-84
2022/11/25 13:26:32;;;;;;;2.78;1.70;;;;;;;;;;4903425;29;20128;-84
2022/11/25 13:29:00;;;;;;;4.00;1.83;;;;;;;;;;4887590;29;20044;-84
2022/11/25 13:31:34;;;;;;;3.53;1.67;;;;;;;;;;4903903;29;20060;-85
2022/11/25 13:34:27;;;;;;;3.60;1.58;;;;;;;;;;4921181;29;20038;-85
2022/11/25 13:36:58;;;;;;;1.93;1.40;;;;;;;;;;4923607;29;20039;-85
2022/11/25 13:39:36;;;;;;;2.50;1.40;;;;;;;;;;4924882;29;20040;-85
2022/11/25 13:42:01;;;;;;;2.95;1.38;;;;;;;;;;4923914;29;20040;-86
2022/11/25 13:44:33;;;;;;;2.75;1.60;;;;;;;;;;4923886;29;20047;-85
2022/11/25 13:47:21;;;;;;;4.45;1.77;;;;;;;;;;4923016;29;20043;-85
2022/11/25 13:49:59;;;;;;;3.63;1.70;;;;;;;;;;4923081;29;20036;-84
2022/11/25 13:52:40;;;;;;;3.92;1.67;;;;;;;;;;4922149;29;20509;-85
2022/11/25 13:55:40;;;;;;;3.35;1.90;;;;;;;;;;4888555;29;20048;-84
2022/11/25 13:58:08;;;;;;;3.20;1.80;;;;;;;;;;4918939;29;20048;-84
2022/11/25 14:00:49;;;;;;;2.88;1.40;;;;;;;;;;4921614;29;20421;-85
2022/11/25 14:03:18;;;;;;;8.50;2.03;;;;;;;;;;4904569;29;20036;-84
2022/11/25 14:06:14;;;;;;;2.97;1.52;;;;;;;;;;4922587;29;20115;-85
2022/11/25 14:09:10;;;;;;;1.50;1.15;;;;;;;;;;4921680;29;20412;-84
2022/11/25 14:11:38;;;;;;;5.20;1.20;;;;;;;;;;4902618;29;20059;-85
2022/11/25 14:14:19;;;;;;;3.58;1.60;;;;;;;;;;4918170;29;20131;-85
2022/11/25 14:16:44;;;;;;;4.38;1.30;;;;;;;;;;4919930;29;20485;-85
2022/11/25 14:19:28;;;;;;;2.58;1.20;;;;;;;;;;4920397;29;20036;-85
2022/11/25 14:22:06;;;;;;;2.72;1.30;;;;;;;;;;4919262;29;20509;-85
2022/11/25 14:24:37;;;;;;;4.20;1.45;;;;;;;;;;4919942;29;20093;-84
2022/11/25 14:27:03;;;;;;;3.05;1.30;;;;;;;;;;4902328;29;20036;-83
2022/11/25 14:29:29;;;;;;;3.28;1.30;;;;;;;;;;4920858;29;20115;-84
2022/11/25 14:32:01;;;;;;;3.97;1.45;;;;;;;;;;4925551;29;20071;-86
2022/11/25 14:46:19;;;;;;;10.35;2.10;;;;;;;;;;4943589;29;20050;-87
2022/11/25 14:48:59;;;;;;;4.60;1.80;;;;;;;;;;4924017;29;20047;-86
2022/11/25 14:51:26;;;;;;;4.07;1.70;;;;;;;;;;4948151;29;20043;-87
2022/11/25 14:53:52;;;;;;;3.55;2.00;;;;;;;;;;4913736;29;20042;-86
2022/11/25 14:56:37;;;;;;;3.05;1.50;;;;;;;;;;4930332;29;20048;-87
2022/11/25 14:59:06;;;;;;;5.18;1.67;;;;;;;;;;4948380;29;20058;-85
2022/11/25 15:01:34;;;;;;;2.15;1.40;;;;;;;;;;4946887;29;20059;-86
2022/11/25 15:04:03;;;;;;;2.20;1.50;;;;;;;;;;4948436;29;20036;-86
2022/11/25 15:06:37;;;;;;;4.82;2.60;;;;;;;;;;4947487;29;20040;-85
2022/11/25 15:09:18;;;;;;;8.68;2.70;;;;;;;;;;4948349;29;20531;-85
2022/11/25 15:11:43;;;;;;;4.22;2.58;;;;;;;;;;4947292;29;20051;-84
2022/11/25 15:14:22;;;;;;;7.10;3.72;;;;;;;;;;4947079;29;20032;-86
2022/11/25 15:16:48;;;;;;;13.05;7.10;;;;;;;;;;4948657;29;20039;-85
2022/11/25 15:19:17;;;;;;;9.70;5.40;;;;;;;;;;4930344;29;20047;-85
2022/11/25 15:21:44;;;;;;;5.05;2.58;;;;;;;;;;4947537;29;20579;-84
2022/11/25 15:24:45;;;;;;;11.98;5.85;;;;;;;;;;4950697;29;20028;-84
2022/11/25 15:27:28;;;;;;;12.20;6.55;;;;;;;;;;4926940;29;20564;-84
2022/11/25 15:29:56;;;;;;;10.18;5.68;;;;;;;;;;4950874;29;20039;-84
2022/11/25 15:32:31;;;;;;;8.57;4.32;;;;;;;;;;4950301;29;20111;-83
2022/11/25 15:35:00;;;;;;;5.68;3.40;;;;;;;;;;4932994;29;20413;-86
2022/11/25 15:37:27;;;;;;;4.32;2.45;;;;;;;;;;4931058;29;20106;-86